createdAt,value
2023-10-09T00:00:24.590Z,99.80
2023-10-09T00:04:26.577Z,99.80
2023-10-09T00:08:31.670Z,99.60
2023-10-09T00:12:33.993Z,99.40
2023-10-09T00:16:36.375Z,99.40
2023-10-09T00:20:40.744Z,99.60
2023-10-09T00:24:47.009Z,99.50
2023-10-09T00:28:52.295Z,99.60
2023-10-09T00:32:54.728Z,99.90
2023-10-09T00:36:59.021Z,99.90
2023-10-09T00:41:09.819Z,99.90
2023-10-09T00:45:17.389Z,99.90
2023-10-09T00:49:23.433Z,99.90
2023-10-09T00:53:32.249Z,99.90
2023-10-09T00:57:41.760Z,99.90
2023-10-09T01:02:10.610Z,99.90
2023-10-09T01:06:12.897Z,99.90
2023-10-09T01:10:17.606Z,99.90
2023-10-09T01:14:22.475Z,99.90
2023-10-09T01:18:32.921Z,99.90
2023-10-09T01:22:34.856Z,99.80
2023-10-09T01:26:41.430Z,99.80
2023-10-09T01:30:44.484Z,99.90
2023-10-09T01:34:50.536Z,99.90
2023-10-09T01:38:55.002Z,99.90
2023-10-09T01:42:57.765Z,99.80
2023-10-09T01:46:59.725Z,99.70
2023-10-09T01:51:01.708Z,99.70
2023-10-09T01:55:14.764Z,99.60
2023-10-09T01:59:16.999Z,99.70
2023-10-09T02:03:19.478Z,99.60
2023-10-09T02:07:28.364Z,99.60
2023-10-09T02:11:42.723Z,99.50
2023-10-09T02:15:45.126Z,99.80
2023-10-09T02:19:50.673Z,99.80
2023-10-09T02:23:52.641Z,99.90
2023-10-09T02:27:54.928Z,99.90
2023-10-09T02:32:02.360Z,99.90
2023-10-09T02:36:06.944Z,99.60
2023-10-09T02:40:10.003Z,99.40
2023-10-09T02:44:12.542Z,99.20
2023-10-09T02:48:15.073Z,99.80
2023-10-09T02:52:25.263Z,99.90
2023-10-09T02:56:59.981Z,99.90
2023-10-09T03:01:01.933Z,99.90
2023-10-09T03:05:04.640Z,99.90
2023-10-09T03:09:17.791Z,99.90
2023-10-09T03:13:20.581Z,99.90
2023-10-09T03:17:24.096Z,99.90
2023-10-09T03:21:26.106Z,99.90
2023-10-09T03:25:29.304Z,99.90
2023-10-09T03:29:31.389Z,99.90
2023-10-09T03:33:37.068Z,99.90
2023-10-09T03:37:40.482Z,99.90
2023-10-09T03:41:43.204Z,99.90
2023-10-09T03:45:55.679Z,99.90
2023-10-09T03:49:58.451Z,99.90
2023-10-09T03:54:04.725Z,99.90
2023-10-09T03:58:07.956Z,99.90
2023-10-09T04:02:09.954Z,99.90
2023-10-09T04:06:12.354Z,99.90
2023-10-09T04:10:32.788Z,99.90
2023-10-09T04:14:34.914Z,99.90
2023-10-09T04:18:39.742Z,99.90
2023-10-09T04:22:52.124Z,99.90
2023-10-09T04:26:57.349Z,99.90
2023-10-09T04:31:03.444Z,99.90
2023-10-09T04:35:23.883Z,99.90
2023-10-09T04:39:31.695Z,99.90
2023-10-09T04:43:34.315Z,99.90
2023-10-09T04:47:37.663Z,99.90
2023-10-09T04:51:56.792Z,99.90
2023-10-09T04:55:58.768Z,99.90
2023-10-09T05:00:00.828Z,99.90
2023-10-09T05:04:05.734Z,99.90
2023-10-09T05:08:21.011Z,99.90
2023-10-09T05:12:27.854Z,99.90
2023-10-09T05:16:30.411Z,99.90
2023-10-09T05:20:50.862Z,99.90
2023-10-09T05:24:55.671Z,99.90
2023-10-09T05:28:59.529Z,99.90
2023-10-09T05:33:21.553Z,99.90
2023-10-09T05:37:26.068Z,99.90
2023-10-09T05:41:46.620Z,99.90
2023-10-09T05:46:08.656Z,99.90
2023-10-09T05:50:10.703Z,99.90
2023-10-09T05:54:13.057Z,99.90
2023-10-09T05:58:34.063Z,99.90
2023-10-09T06:03:01.753Z,99.90
2023-10-09T06:07:13.579Z,99.90
2023-10-09T06:11:34.116Z,99.90
2023-10-09T06:15:51.803Z,99.90
2023-10-09T06:20:00.128Z,99.90
2023-10-09T06:24:16.289Z,99.90
2023-10-09T06:28:34.552Z,99.90
2023-10-09T06:32:38.352Z,99.90
2023-10-09T06:36:54.025Z,99.90
2023-10-09T06:41:05.044Z,99.90
2023-10-09T06:45:10.566Z,99.90
2023-10-09T06:49:30.687Z,99.90
2023-10-09T06:53:51.108Z,99.90
2023-10-09T06:57:54.682Z,99.90
2023-10-09T07:02:35.201Z,99.90
2023-10-09T07:06:37.405Z,99.90
2023-10-09T07:10:40.999Z,99.90
2023-10-09T07:14:42.968Z,99.90
2023-10-09T07:18:51.043Z,99.90
2023-10-09T07:23:13.086Z,99.90
2023-10-09T07:27:15.337Z,99.90
2023-10-09T07:31:28.708Z,99.90
2023-10-09T07:35:45.094Z,99.90
2023-10-09T07:39:58.531Z,99.90
2023-10-09T07:44:20.149Z,99.90
2023-10-09T07:48:26.976Z,99.90
2023-10-09T07:52:30.626Z,99.90
2023-10-09T07:56:39.538Z,99.90
2023-10-09T08:01:07.631Z,99.90
2023-10-09T08:05:23.904Z,99.90
2023-10-09T08:09:44.396Z,99.90
2023-10-09T08:13:58.118Z,99.90
2023-10-09T08:18:00.584Z,99.90
2023-10-09T08:22:28.422Z,99.90
2023-10-09T08:26:30.492Z,99.90
2023-10-09T08:30:45.331Z,99.90
2023-10-09T08:38:59.560Z,99.90
2023-10-09T08:43:10.097Z,99.90
2023-10-09T08:47:13.087Z,99.90
2023-10-09T08:51:15.344Z,99.90
2023-10-09T08:55:20.118Z,99.90
2023-10-09T08:59:22.107Z,99.90
2023-10-09T09:03:25.426Z,99.90
2023-10-09T09:07:32.472Z,99.90
2023-10-09T09:11:49.731Z,99.90
2023-10-09T09:15:54.786Z,99.90
2023-10-09T09:19:58.778Z,99.90
2023-10-09T09:24:02.787Z,99.90
2023-10-09T09:28:13.591Z,99.90
2023-10-09T09:32:22.002Z,99.90
2023-10-09T09:36:27.488Z,99.90
2023-10-09T09:40:34.359Z,99.90
2023-10-09T09:44:44.638Z,99.90
2023-10-09T09:48:48.601Z,99.70
2023-10-09T09:52:54.981Z,99.30
2023-10-09T09:56:59.436Z,98.80
2023-10-09T10:01:17.262Z,98.50
2023-10-09T10:05:19.402Z,98.80
2023-10-09T10:09:40.136Z,99.00
2023-10-09T10:13:42.383Z,99.30
2023-10-09T10:18:08.451Z,99.30
2023-10-09T10:22:31.419Z,99.60
2023-10-09T10:26:37.187Z,99.50
2023-10-09T10:30:47.392Z,99.50
2023-10-09T10:34:59.220Z,99.50
2023-10-09T10:39:12.813Z,99.70
2023-10-09T10:43:35.373Z,99.50
2023-10-09T10:47:37.543Z,97.30
2023-10-09T10:51:39.924Z,96.90
2023-10-09T10:55:57.832Z,95.50
2023-10-09T11:00:14.007Z,95.90
2023-10-09T11:04:25.971Z,94.70
2023-10-09T11:08:33.963Z,93.90
2023-10-09T11:12:53.924Z,93.80
2023-10-09T11:17:06.391Z,93.30
2023-10-09T11:21:08.374Z,93.50
2023-10-09T11:25:13.203Z,92.70
2023-10-09T11:29:25.169Z,93.30
2023-10-09T11:33:30.852Z,92.60
2023-10-09T11:37:40.463Z,92.60
2023-10-09T11:41:42.655Z,92.30
2023-10-09T11:45:56.126Z,93.20
2023-10-09T11:50:02.147Z,92.20
2023-10-09T11:54:04.454Z,92.10
2023-10-09T11:58:07.922Z,92.80
2023-10-09T12:02:14.279Z,92.70
2023-10-09T12:06:20.130Z,92.70
2023-10-09T12:10:26.828Z,91.90
2023-10-09T12:14:34.550Z,91.90
2023-10-09T12:18:38.191Z,92.20
2023-10-09T12:22:42.028Z,92.10
2023-10-09T12:26:45.182Z,91.30
2023-10-09T12:30:51.722Z,91.90
2023-10-09T12:34:53.975Z,92.10
2023-10-09T12:39:00.133Z,93.10
2023-10-09T12:43:02.238Z,91.60
2023-10-09T12:47:05.880Z,91.80
2023-10-09T12:51:07.876Z,91.60
2023-10-09T12:55:19.230Z,91.30
2023-10-09T12:59:22.120Z,90.70
2023-10-09T13:03:29.622Z,90.20
2023-10-09T13:07:31.927Z,88.90
2023-10-09T13:11:33.844Z,90.00
2023-10-09T13:15:43.806Z,90.40
2023-10-09T13:19:45.794Z,90.30
2023-10-09T13:23:49.158Z,90.20
2023-10-09T13:27:54.115Z,91.10
2023-10-09T13:32:03.622Z,90.10
2023-10-09T13:36:17.039Z,90.00
2023-10-09T13:40:27.918Z,90.30
2023-10-09T13:44:31.303Z,90.50
2023-10-09T13:48:39.125Z,91.10
2023-10-09T13:52:41.140Z,89.70
2023-10-09T13:56:43.012Z,90.60
2023-10-09T14:00:47.434Z,90.00
2023-10-09T14:04:49.844Z,90.30
2023-10-09T14:08:52.308Z,90.80
2023-10-09T14:12:56.668Z,91.20
2023-10-09T14:16:58.707Z,91.00
2023-10-09T14:21:16.818Z,89.80
2023-10-09T14:25:21.961Z,90.00
2023-10-09T14:29:27.792Z,90.80
2023-10-09T14:33:37.157Z,91.10
2023-10-09T14:37:40.667Z,90.30
2023-10-09T14:41:42.677Z,90.90
2023-10-09T14:45:44.631Z,91.00
2023-10-09T14:49:49.774Z,87.90
2023-10-09T14:53:54.288Z,88.10
2023-10-09T14:57:56.511Z,86.30
2023-10-09T15:01:59.504Z,85.90
2023-10-09T15:06:01.617Z,85.00
2023-10-09T15:10:06.242Z,84.70
2023-10-09T15:14:08.386Z,83.20
2023-10-09T15:18:13.782Z,81.40
2023-10-09T15:22:15.824Z,84.70
2023-10-09T15:26:19.483Z,84.00
2023-10-09T15:30:21.631Z,85.00
2023-10-09T15:34:25.581Z,83.30
2023-10-09T15:38:30.213Z,83.70
2023-10-09T15:42:32.317Z,85.70
2023-10-09T15:46:37.050Z,89.00
2023-10-09T15:50:41.019Z,90.60
2023-10-09T15:54:44.349Z,91.00
2023-10-09T15:58:47.344Z,91.40
2023-10-09T16:02:51.982Z,91.70
2023-10-09T16:06:56.501Z,92.60
2023-10-09T16:10:59.865Z,93.10
2023-10-09T16:15:02.600Z,93.90
2023-10-09T16:19:05.665Z,94.00
2023-10-09T16:23:07.794Z,94.60
2023-10-09T16:27:11.121Z,94.90
2023-10-09T16:31:19.989Z,95.30
2023-10-09T16:35:23.728Z,95.00
2023-10-09T16:39:25.858Z,94.70
2023-10-09T16:43:29.195Z,94.20
2023-10-09T16:47:31.191Z,94.60
2023-10-09T16:51:33.088Z,94.60
2023-10-09T16:55:35.106Z,94.50
2023-10-09T16:59:40.091Z,94.80
2023-10-09T17:03:48.778Z,94.60
2023-10-09T17:07:50.947Z,94.60
2023-10-09T17:11:53.732Z,95.00
2023-10-09T17:15:55.888Z,95.30
2023-10-09T17:19:59.180Z,95.50
2023-10-09T17:24:01.211Z,95.70
2023-10-09T17:28:03.216Z,96.00
2023-10-09T17:32:07.341Z,96.30
2023-10-09T17:36:09.418Z,96.40
2023-10-09T17:40:11.984Z,96.50
2023-10-09T17:44:16.595Z,96.60
2023-10-09T17:48:19.519Z,96.60
2023-10-09T17:52:23.151Z,96.60
2023-10-09T17:56:26.978Z,96.30
2023-10-09T18:00:29.231Z,96.90
2023-10-09T18:04:36.416Z,97.10
2023-10-09T18:08:39.900Z,97.40
2023-10-09T18:12:41.819Z,97.40
2023-10-09T18:16:44.332Z,97.40
2023-10-09T18:20:47.934Z,97.40
2023-10-09T18:24:49.858Z,97.30
2023-10-09T18:28:51.784Z,97.30
2023-10-09T18:32:57.717Z,97.70
2023-10-09T18:37:00.119Z,97.60
2023-10-09T18:41:09.067Z,97.50
2023-10-09T18:45:16.476Z,97.50
2023-10-09T18:49:19.351Z,98.00
2023-10-09T18:53:21.472Z,98.00
2023-10-09T18:57:25.138Z,97.70
2023-10-09T19:01:27.508Z,97.90
2023-10-09T19:05:29.469Z,97.90
2023-10-09T19:09:32.479Z,97.90
2023-10-09T19:13:36.393Z,98.00
2023-10-09T19:17:39.066Z,98.10
2023-10-09T19:21:41.216Z,98.20
2023-10-09T19:25:44.025Z,98.40
2023-10-09T19:29:47.333Z,98.20
2023-10-09T19:33:50.491Z,98.30
2023-10-09T19:37:52.645Z,98.50
2023-10-09T19:41:54.716Z,98.60
2023-10-09T19:46:04.212Z,98.20
2023-10-09T19:50:15.825Z,98.30
2023-10-09T19:54:19.048Z,98.20
2023-10-09T19:58:20.882Z,98.20
2023-10-09T20:02:24.258Z,98.20
2023-10-09T20:06:26.164Z,98.40
2023-10-09T20:10:28.136Z,98.20
2023-10-09T20:14:30.231Z,98.20
2023-10-09T20:18:32.156Z,98.20
2023-10-09T20:22:34.121Z,98.20
2023-10-09T20:26:36.307Z,98.40
2023-10-09T20:30:38.839Z,98.50
2023-10-09T20:34:43.296Z,98.40
2023-10-09T20:38:49.664Z,98.50
2023-10-09T20:42:52.467Z,98.70
2023-10-09T20:46:55.153Z,98.60
2023-10-09T20:50:57.135Z,98.80
2023-10-09T20:54:59.175Z,98.70
2023-10-09T20:59:02.015Z,98.80
2023-10-09T21:03:06.446Z,98.80
2023-10-09T21:07:12.359Z,98.80
2023-10-09T21:11:14.593Z,98.80
2023-10-09T21:15:18.100Z,99.90
2023-10-09T21:19:20.035Z,99.50
2023-10-09T21:23:21.991Z,99.40
2023-10-09T21:27:24.070Z,99.40
2023-10-09T21:31:26.402Z,99.60
2023-10-09T21:35:29.797Z,99.60
2023-10-09T21:39:31.736Z,99.70
2023-10-09T21:43:33.683Z,99.50
2023-10-09T21:47:35.608Z,99.40
2023-10-09T21:51:38.546Z,99.20
2023-10-09T21:55:42.383Z,99.20
2023-10-09T21:59:45.986Z,99.20
2023-10-09T22:03:49.434Z,99.90
2023-10-09T22:07:52.998Z,99.80
2023-10-09T22:11:54.980Z,99.90
2023-10-09T22:15:57.019Z,99.50
2023-10-09T22:19:59.503Z,99.50
2023-10-09T22:24:01.423Z,99.50
2023-10-09T22:28:10.104Z,99.60
2023-10-09T22:32:17.642Z,99.70
2023-10-09T22:36:42.380Z,99.60
2023-10-09T22:40:52.543Z,99.60
2023-10-09T22:44:57.356Z,99.60
2023-10-09T22:49:13.964Z,99.50
2023-10-09T22:53:23.636Z,99.60
2023-10-09T22:57:26.460Z,99.50
2023-10-09T23:01:29.750Z,99.40
2023-10-09T23:05:32.750Z,99.20
2023-10-09T23:09:34.745Z,99.10
2023-10-09T23:14:15.815Z,99.40
2023-10-09T23:18:34.126Z,99.20
2023-10-09T23:22:36.029Z,99.40
2023-10-09T23:26:53.870Z,99.40
2023-10-09T23:30:57.826Z,99.30
2023-10-09T23:35:03.450Z,99.40
2023-10-09T23:39:12.183Z,99.30
2023-10-09T23:43:17.945Z,99.20
2023-10-09T23:47:27.515Z,99.20
2023-10-09T23:51:30.127Z,99.30
2023-10-09T23:55:43.047Z,99.30
2023-10-09T23:59:51.891Z,99.30
